sensor_id;sensor_type;location;lat;lon;timestamp;P1;durP1;ratioP1;P2;durP2;ratioP2
24813;SDS011;12904;50.088;11.414;2023-06-22T00:01:50;18.73;;;17.23;;
24813;SDS011;12904;50.088;11.414;2023-06-22T00:04:15;19.02;;;17.52;;
24813;SDS011;12904;50.088;11.414;2023-06-22T00:06:41;17.40;;;15.73;;
24813;SDS011;12904;50.088;11.414;2023-06-22T00:09:07;17.20;;;16.00;;
24813;SDS011;12904;50.088;11.414;2023-06-22T00:11:33;16.20;;;15.10;;
24813;SDS011;12904;50.088;11.414;2023-06-22T00:13:59;18.67;;;17.17;;
24813;SDS011;12904;50.088;11.414;2023-06-22T00:16:25;18.65;;;17.15;;
24813;SDS011;12904;50.088;11.414;2023-06-22T00:18:50;18.27;;;16.67;;
24813;SDS011;12904;50.088;11.414;2023-06-22T00:21:16;18.50;;;17.00;;
24813;SDS011;12904;50.088;11.414;2023-06-22T00:23:42;18.13;;;16.73;;
24813;SDS011;12904;50.088;11.414;2023-06-22T00:26:08;16.90;;;15.52;;
24813;SDS011;12904;50.088;11.414;2023-06-22T00:28:33;16.15;;;14.85;;
24813;SDS011;12904;50.088;11.414;2023-06-22T00:30:59;15.98;;;14.70;;
24813;SDS011;12904;50.088;11.414;2023-06-22T00:33:25;15.80;;;14.48;;
24813;SDS011;12904;50.088;11.414;2023-06-22T00:35:51;16.92;;;15.57;;
24813;SDS011;12904;50.088;11.414;2023-06-22T00:38:20;16.67;;;15.30;;
24813;SDS011;12904;50.088;11.414;2023-06-22T00:40:45;16.27;;;14.70;;
24813;SDS011;12904;50.088;11.414;2023-06-22T00:43:11;15.35;;;14.27;;
24813;SDS011;12904;50.088;11.414;2023-06-22T00:45:37;15.10;;;13.88;;
24813;SDS011;12904;50.088;11.414;2023-06-22T00:48:03;15.15;;;13.70;;
24813;SDS011;12904;50.088;11.414;2023-06-22T00:50:30;16.48;;;15.18;;
24813;SDS011;12904;50.088;11.414;2023-06-22T00:52:59;16.05;;;14.80;;
24813;SDS011;12904;50.088;11.414;2023-06-22T00:55:37;22.23;;;16.20;;
24813;SDS011;12904;50.088;11.414;2023-06-22T00:58:08;17.40;;;16.15;;
24813;SDS011;12904;50.088;11.414;2023-06-22T01:00:35;16.48;;;15.10;;
24813;SDS011;12904;50.088;11.414;2023-06-22T01:03:02;17.88;;;16.13;;
24813;SDS011;12904;50.088;11.414;2023-06-22T01:05:29;18.38;;;16.90;;
24813;SDS011;12904;50.088;11.414;2023-06-22T01:13:21;19.15;;;17.63;;
24813;SDS011;12904;50.088;11.414;2023-06-22T01:16:05;19.55;;;17.70;;
24813;SDS011;12904;50.088;11.414;2023-06-22T01:18:38;21.35;;;19.52;;
24813;SDS011;12904;50.088;11.414;2023-06-22T01:21:07;20.08;;;18.13;;
24813;SDS011;12904;50.088;11.414;2023-06-22T01:23:41;18.95;;;17.38;;
24813;SDS011;12904;50.088;11.414;2023-06-22T01:26:17;20.25;;;18.10;;
24813;SDS011;12904;50.088;11.414;2023-06-22T01:28:47;20.88;;;18.85;;
24813;SDS011;12904;50.088;11.414;2023-06-22T01:31:18;20.25;;;18.58;;
24813;SDS011;12904;50.088;11.414;2023-06-22T01:33:48;21.83;;;19.83;;
24813;SDS011;12904;50.088;11.414;2023-06-22T01:36:17;22.08;;;20.00;;
24813;SDS011;12904;50.088;11.414;2023-06-22T01:38:44;21.40;;;19.50;;
24813;SDS011;12904;50.088;11.414;2023-06-22T01:41:11;21.88;;;19.83;;
24813;SDS011;12904;50.088;11.414;2023-06-22T01:43:38;23.17;;;20.88;;
24813;SDS011;12904;50.088;11.414;2023-06-22T01:46:04;20.88;;;18.98;;
24813;SDS011;12904;50.088;11.414;2023-06-22T01:48:30;21.67;;;19.55;;
24813;SDS011;12904;50.088;11.414;2023-06-22T01:50:57;21.50;;;19.60;;
24813;SDS011;12904;50.088;11.414;2023-06-22T01:53:23;20.67;;;18.98;;
24813;SDS011;12904;50.088;11.414;2023-06-22T01:55:49;20.35;;;18.45;;
24813;SDS011;12904;50.088;11.414;2023-06-22T01:58:14;20.60;;;18.38;;
24813;SDS011;12904;50.088;11.414;2023-06-22T02:00:41;22.20;;;19.95;;
24813;SDS011;12904;50.088;11.414;2023-06-22T02:03:13;21.27;;;19.35;;
24813;SDS011;12904;50.088;11.414;2023-06-22T02:05:50;21.00;;;19.00;;
24813;SDS011;12904;50.088;11.414;2023-06-22T02:08:20;21.75;;;19.73;;
24813;SDS011;12904;50.088;11.414;2023-06-22T02:10:49;20.70;;;18.92;;
24813;SDS011;12904;50.088;11.414;2023-06-22T02:13:16;20.83;;;18.90;;
24813;SDS011;12904;50.088;11.414;2023-06-22T02:15:43;20.23;;;18.23;;
24813;SDS011;12904;50.088;11.414;2023-06-22T02:18:09;20.75;;;18.52;;
24813;SDS011;12904;50.088;11.414;2023-06-22T02:20:38;21.23;;;19.52;;
24813;SDS011;12904;50.088;11.414;2023-06-22T02:23:04;23.23;;;17.80;;
24813;SDS011;12904;50.088;11.414;2023-06-22T02:25:31;20.45;;;18.17;;
24813;SDS011;12904;50.088;11.414;2023-06-22T02:27:57;23.08;;;19.92;;
24813;SDS011;12904;50.088;11.414;2023-06-22T02:30:23;20.25;;;18.25;;
24813;SDS011;12904;50.088;11.414;2023-06-22T02:32:48;22.25;;;20.33;;
24813;SDS011;12904;50.088;11.414;2023-06-22T02:35:16;20.88;;;18.77;;
24813;SDS011;12904;50.088;11.414;2023-06-22T02:37:42;21.00;;;19.00;;
24813;SDS011;12904;50.088;11.414;2023-06-22T02:40:08;21.05;;;19.27;;
24813;SDS011;12904;50.088;11.414;2023-06-22T02:42:34;21.88;;;19.98;;
24813;SDS011;12904;50.088;11.414;2023-06-22T02:45:00;20.85;;;19.23;;
24813;SDS011;12904;50.088;11.414;2023-06-22T02:47:26;20.80;;;19.00;;
24813;SDS011;12904;50.088;11.414;2023-06-22T02:49:52;21.08;;;18.75;;
24813;SDS011;12904;50.088;11.414;2023-06-22T02:52:17;22.80;;;18.33;;
24813;SDS011;12904;50.088;11.414;2023-06-22T02:54:43;19.70;;;17.75;;
24813;SDS011;12904;50.088;11.414;2023-06-22T02:57:11;19.23;;;17.48;;
24813;SDS011;12904;50.088;11.414;2023-06-22T02:59:39;18.63;;;17.02;;
24813;SDS011;12904;50.088;11.414;2023-06-22T03:02:06;20.48;;;18.50;;
24813;SDS011;12904;50.088;11.414;2023-06-22T03:04:33;20.58;;;18.50;;
24813;SDS011;12904;50.088;11.414;2023-06-22T03:06:59;19.90;;;17.95;;
24813;SDS011;12904;50.088;11.414;2023-06-22T03:09:26;21.48;;;19.48;;
24813;SDS011;12904;50.088;11.414;2023-06-22T03:11:53;23.75;;;21.35;;
24813;SDS011;12904;50.088;11.414;2023-06-22T03:14:19;23.08;;;20.88;;
24813;SDS011;12904;50.088;11.414;2023-06-22T03:16:45;24.23;;;22.02;;
24813;SDS011;12904;50.088;11.414;2023-06-22T03:19:10;22.83;;;20.65;;
24813;SDS011;12904;50.088;11.414;2023-06-22T03:21:37;26.08;;;23.35;;
24813;SDS011;12904;50.088;11.414;2023-06-22T03:24:06;26.60;;;24.25;;
24813;SDS011;12904;50.088;11.414;2023-06-22T03:26:32;27.05;;;24.00;;
24813;SDS011;12904;50.088;11.414;2023-06-22T03:28:59;30.48;;;23.98;;
24813;SDS011;12904;50.088;11.414;2023-06-22T03:31:24;26.45;;;23.90;;
24813;SDS011;12904;50.088;11.414;2023-06-22T03:33:50;27.45;;;24.63;;
24813;SDS011;12904;50.088;11.414;2023-06-22T03:36:17;27.55;;;24.75;;
24813;SDS011;12904;50.088;11.414;2023-06-22T03:38:47;25.75;;;23.55;;
24813;SDS011;12904;50.088;11.414;2023-06-22T03:41:13;28.05;;;25.15;;
24813;SDS011;12904;50.088;11.414;2023-06-22T03:43:39;26.25;;;22.70;;
24813;SDS011;12904;50.088;11.414;2023-06-22T03:46:05;27.00;;;24.33;;
24813;SDS011;12904;50.088;11.414;2023-06-22T03:48:31;28.33;;;25.35;;
24813;SDS011;12904;50.088;11.414;2023-06-22T03:50:56;30.42;;;25.10;;
24813;SDS011;12904;50.088;11.414;2023-06-22T03:53:23;25.20;;;22.88;;
24813;SDS011;12904;50.088;11.414;2023-06-22T03:55:50;27.20;;;24.60;;
24813;SDS011;12904;50.088;11.414;2023-06-22T03:58:17;27.77;;;25.15;;
24813;SDS011;12904;50.088;11.414;2023-06-22T04:00:44;25.83;;;23.42;;
24813;SDS011;12904;50.088;11.414;2023-06-22T04:03:14;27.77;;;24.70;;
24813;SDS011;12904;50.088;11.414;2023-06-22T04:05:40;27.40;;;24.88;;
24813;SDS011;12904;50.088;11.414;2023-06-22T04:08:07;29.58;;;26.30;;
24813;SDS011;12904;50.088;11.414;2023-06-22T04:10:33;27.10;;;24.63;;
24813;SDS011;12904;50.088;11.414;2023-06-22T04:12:59;29.02;;;26.10;;
24813;SDS011;12904;50.088;11.414;2023-06-22T04:15:25;30.63;;;26.23;;
24813;SDS011;12904;50.088;11.414;2023-06-22T04:17:50;32.97;;;27.30;;
24813;SDS011;12904;50.088;11.414;2023-06-22T04:20:16;30.25;;;27.33;;
24813;SDS011;12904;50.088;11.414;2023-06-22T04:22:42;31.58;;;27.92;;
24813;SDS011;12904;50.088;11.414;2023-06-22T04:25:07;31.13;;;26.73;;
24813;SDS011;12904;50.088;11.414;2023-06-22T04:27:33;28.73;;;25.52;;
24813;SDS011;12904;50.088;11.414;2023-06-22T04:30:05;29.92;;;26.73;;
24813;SDS011;12904;50.088;11.414;2023-06-22T04:32:33;28.38;;;25.30;;
24813;SDS011;12904;50.088;11.414;2023-06-22T04:35:00;29.85;;;25.88;;
24813;SDS011;12904;50.088;11.414;2023-06-22T04:37:27;31.23;;;25.85;;
24813;SDS011;12904;50.088;11.414;2023-06-22T04:39:52;26.80;;;24.45;;
24813;SDS011;12904;50.088;11.414;2023-06-22T04:42:18;28.00;;;25.35;;
24813;SDS011;12904;50.088;11.414;2023-06-22T04:44:43;26.23;;;23.05;;
24813;SDS011;12904;50.088;11.414;2023-06-22T04:47:09;24.67;;;22.20;;
24813;SDS011;12904;50.088;11.414;2023-06-22T04:49:35;26.10;;;23.63;;
24813;SDS011;12904;50.088;11.414;2023-06-22T04:52:02;28.73;;;22.23;;
24813;SDS011;12904;50.088;11.414;2023-06-22T04:54:30;26.90;;;24.35;;
24813;SDS011;12904;50.088;11.414;2023-06-22T04:56:59;25.25;;;22.95;;
24813;SDS011;12904;50.088;11.414;2023-06-22T04:59:26;24.95;;;22.98;;
24813;SDS011;12904;50.088;11.414;2023-06-22T05:01:58;22.88;;;20.92;;
24813;SDS011;12904;50.088;11.414;2023-06-22T05:04:24;25.58;;;21.70;;
24813;SDS011;12904;50.088;11.414;2023-06-22T05:06:52;23.60;;;21.40;;
24813;SDS011;12904;50.088;11.414;2023-06-22T05:09:19;22.88;;;20.77;;
24813;SDS011;12904;50.088;11.414;2023-06-22T05:11:45;23.23;;;21.25;;
24813;SDS011;12904;50.088;11.414;2023-06-22T05:14:11;22.90;;;20.77;;
24813;SDS011;12904;50.088;11.414;2023-06-22T05:16:37;22.00;;;19.85;;
24813;SDS011;12904;50.088;11.414;2023-06-22T05:19:03;21.63;;;19.60;;
24813;SDS011;12904;50.088;11.414;2023-06-22T05:21:29;20.40;;;18.67;;
24813;SDS011;12904;50.088;11.414;2023-06-22T05:23:56;19.15;;;17.48;;
24813;SDS011;12904;50.088;11.414;2023-06-22T05:26:27;19.02;;;17.52;;
24813;SDS011;12904;50.088;11.414;2023-06-22T05:28:57;17.73;;;16.42;;
24813;SDS011;12904;50.088;11.414;2023-06-22T05:31:24;18.88;;;17.25;;
24813;SDS011;12904;50.088;11.414;2023-06-22T05:33:50;16.27;;;14.95;;
24813;SDS011;12904;50.088;11.414;2023-06-22T05:36:17;17.52;;;16.23;;
24813;SDS011;12904;50.088;11.414;2023-06-22T05:38:46;18.08;;;16.27;;
24813;SDS011;12904;50.088;11.414;2023-06-22T05:41:13;17.63;;;15.95;;
24813;SDS011;12904;50.088;11.414;2023-06-22T05:43:39;17.65;;;16.23;;
24813;SDS011;12904;50.088;11.414;2023-06-22T05:46:05;17.33;;;16.13;;
24813;SDS011;12904;50.088;11.414;2023-06-22T05:48:30;17.80;;;16.55;;
24813;SDS011;12904;50.088;11.414;2023-06-22T05:50:56;17.23;;;15.63;;
24813;SDS011;12904;50.088;11.414;2023-06-22T05:53:22;17.65;;;16.25;;
24813;SDS011;12904;50.088;11.414;2023-06-22T05:55:48;16.77;;;15.20;;
24813;SDS011;12904;50.088;11.414;2023-06-22T05:58:14;17.67;;;15.50;;
24813;SDS011;12904;50.088;11.414;2023-06-22T06:00:40;16.50;;;14.90;;
24813;SDS011;12904;50.088;11.414;2023-06-22T06:03:06;15.80;;;14.23;;
24813;SDS011;12904;50.088;11.414;2023-06-22T06:05:33;21.35;;;15.07;;
24813;SDS011;12904;50.088;11.414;2023-06-22T06:08:00;14.35;;;13.30;;
24813;SDS011;12904;50.088;11.414;2023-06-22T06:10:26;15.30;;;13.90;;
24813;SDS011;12904;50.088;11.414;2023-06-22T06:12:54;15.90;;;14.55;;
24813;SDS011;12904;50.088;11.414;2023-06-22T06:15:20;14.88;;;13.75;;
24813;SDS011;12904;50.088;11.414;2023-06-22T06:17:49;13.52;;;12.52;;
24813;SDS011;12904;50.088;11.414;2023-06-22T06:20:17;14.65;;;13.55;;
24813;SDS011;12904;50.088;11.414;2023-06-22T06:22:44;13.50;;;12.40;;
24813;SDS011;12904;50.088;11.414;2023-06-22T06:25:09;14.77;;;13.32;;
24813;SDS011;12904;50.088;11.414;2023-06-22T06:27:44;13.90;;;12.63;;
24813;SDS011;12904;50.088;11.414;2023-06-22T06:30:11;15.32;;;13.95;;
24813;SDS011;12904;50.088;11.414;2023-06-22T06:32:37;14.32;;;13.23;;
24813;SDS011;12904;50.088;11.414;2023-06-22T06:35:07;13.48;;;12.38;;
24813;SDS011;12904;50.088;11.414;2023-06-22T06:37:39;13.02;;;12.13;;
24813;SDS011;12904;50.088;11.414;2023-06-22T06:40:06;12.77;;;11.77;;
24813;SDS011;12904;50.088;11.414;2023-06-22T06:42:38;14.20;;;12.18;;
24813;SDS011;12904;50.088;11.414;2023-06-22T06:47:35;12.52;;;11.57;;
24813;SDS011;12904;50.088;11.414;2023-06-22T06:50:01;12.50;;;11.35;;
24813;SDS011;12904;50.088;11.414;2023-06-22T06:52:27;13.80;;;12.55;;
24813;SDS011;12904;50.088;11.414;2023-06-22T06:54:53;12.77;;;11.77;;
24813;SDS011;12904;50.088;11.414;2023-06-22T06:57:19;12.23;;;11.07;;
24813;SDS011;12904;50.088;11.414;2023-06-22T06:59:45;12.15;;;10.40;;
24813;SDS011;12904;50.088;11.414;2023-06-22T07:02:11;11.98;;;11.07;;
24813;SDS011;12904;50.088;11.414;2023-06-22T07:04:36;11.35;;;10.55;;
24813;SDS011;12904;50.088;11.414;2023-06-22T07:07:02;11.43;;;10.32;;
24813;SDS011;12904;50.088;11.414;2023-06-22T07:09:28;11.77;;;10.88;;
24813;SDS011;12904;50.088;11.414;2023-06-22T07:11:53;11.90;;;10.75;;
24813;SDS011;12904;50.088;11.414;2023-06-22T07:14:19;13.07;;;10.77;;
24813;SDS011;12904;50.088;11.414;2023-06-22T07:16:45;11.50;;;10.50;;
24813;SDS011;12904;50.088;11.414;2023-06-22T07:19:11;11.18;;;9.82;;
24813;SDS011;12904;50.088;11.414;2023-06-22T07:21:38;11.38;;;10.27;;
24813;SDS011;12904;50.088;11.414;2023-06-22T07:24:04;10.13;;;9.20;;
24813;SDS011;12904;50.088;11.414;2023-06-22T07:26:31;10.02;;;9.13;;
24813;SDS011;12904;50.088;11.414;2023-06-22T07:28:57;9.60;;;8.75;;
24813;SDS011;12904;50.088;11.414;2023-06-22T07:31:24;10.30;;;9.15;;
24813;SDS011;12904;50.088;11.414;2023-06-22T07:33:50;10.43;;;9.63;;
24813;SDS011;12904;50.088;11.414;2023-06-22T07:36:16;9.15;;;8.45;;
24813;SDS011;12904;50.088;11.414;2023-06-22T07:38:42;9.55;;;8.85;;
24813;SDS011;12904;50.088;11.414;2023-06-22T07:41:08;10.30;;;9.15;;
24813;SDS011;12904;50.088;11.414;2023-06-22T07:43:34;9.35;;;8.65;;
24813;SDS011;12904;50.088;11.414;2023-06-22T07:46:02;8.30;;;7.70;;
24813;SDS011;12904;50.088;11.414;2023-06-22T07:48:28;14.80;;;8.73;;
24813;SDS011;12904;50.088;11.414;2023-06-22T07:50:54;8.40;;;7.70;;
24813;SDS011;12904;50.088;11.414;2023-06-22T07:53:21;8.98;;;8.18;;
24813;SDS011;12904;50.088;11.414;2023-06-22T07:55:48;8.77;;;8.07;;
24813;SDS011;12904;50.088;11.414;2023-06-22T07:58:14;9.52;;;8.73;;
24813;SDS011;12904;50.088;11.414;2023-06-22T08:00:40;9.88;;;7.95;;
24813;SDS011;12904;50.088;11.414;2023-06-22T08:03:06;9.15;;;8.45;;
24813;SDS011;12904;50.088;11.414;2023-06-22T08:05:32;8.55;;;7.70;;
24813;SDS011;12904;50.088;11.414;2023-06-22T08:07:57;8.32;;;7.72;;
24813;SDS011;12904;50.088;11.414;2023-06-22T08:10:23;8.35;;;7.55;;
24813;SDS011;12904;50.088;11.414;2023-06-22T08:12:49;8.95;;;8.25;;
24813;SDS011;12904;50.088;11.414;2023-06-22T08:15:16;7.72;;;7.07;;
24813;SDS011;12904;50.088;11.414;2023-06-22T08:17:43;8.02;;;7.43;;
24813;SDS011;12904;50.088;11.414;2023-06-22T08:20:10;8.18;;;7.40;;
24813;SDS011;12904;50.088;11.414;2023-06-22T08:22:37;7.28;;;6.70;;
24813;SDS011;12904;50.088;11.414;2023-06-22T08:25:03;6.80;;;6.30;;
24813;SDS011;12904;50.088;11.414;2023-06-22T08:27:29;7.43;;;6.55;;
24813;SDS011;12904;50.088;11.414;2023-06-22T08:29:59;7.47;;;6.43;;
24813;SDS011;12904;50.088;11.414;2023-06-22T08:32:25;7.75;;;6.75;;
24813;SDS011;12904;50.088;11.414;2023-06-22T08:34:52;8.23;;;6.78;;
24813;SDS011;12904;50.088;11.414;2023-06-22T08:37:21;7.43;;;6.82;;
24813;SDS011;12904;50.088;11.414;2023-06-22T08:39:55;6.57;;;5.97;;
24813;SDS011;12904;50.088;11.414;2023-06-22T08:42:21;6.20;;;5.68;;
24813;SDS011;12904;50.088;11.414;2023-06-22T08:44:48;6.38;;;5.80;;
24813;SDS011;12904;50.088;11.414;2023-06-22T08:47:13;11.50;;;5.88;;
24813;SDS011;12904;50.088;11.414;2023-06-22T08:49:39;8.63;;;5.30;;
24813;SDS011;12904;50.088;11.414;2023-06-22T08:52:05;6.80;;;6.10;;
24813;SDS011;12904;50.088;11.414;2023-06-22T08:54:31;6.30;;;5.80;;
24813;SDS011;12904;50.088;11.414;2023-06-22T08:56:58;7.25;;;5.45;;
24813;SDS011;12904;50.088;11.414;2023-06-22T08:59:23;6.88;;;6.22;;
24813;SDS011;12904;50.088;11.414;2023-06-22T09:01:49;8.93;;;5.85;;
24813;SDS011;12904;50.088;11.414;2023-06-22T09:04:14;10.20;;;5.93;;
24813;SDS011;12904;50.088;11.414;2023-06-22T09:06:40;6.35;;;5.75;;
24813;SDS011;12904;50.088;11.414;2023-06-22T09:09:10;6.30;;;5.70;;
24813;SDS011;12904;50.088;11.414;2023-06-22T09:11:37;6.57;;;5.97;;
24813;SDS011;12904;50.088;11.414;2023-06-22T09:14:02;6.75;;;5.40;;
24813;SDS011;12904;50.088;11.414;2023-06-22T09:16:29;6.45;;;5.70;;
24813;SDS011;12904;50.088;11.414;2023-06-22T09:18:55;6.70;;;5.15;;
24813;SDS011;12904;50.088;11.414;2023-06-22T09:21:21;7.03;;;5.78;;
24813;SDS011;12904;50.088;11.414;2023-06-22T09:23:47;6.22;;;5.72;;
24813;SDS011;12904;50.088;11.414;2023-06-22T09:26:16;5.97;;;5.38;;
24813;SDS011;12904;50.088;11.414;2023-06-22T09:28:42;6.07;;;5.22;;
24813;SDS011;12904;50.088;11.414;2023-06-22T09:31:07;6.32;;;5.20;;
24813;SDS011;12904;50.088;11.414;2023-06-22T09:33:33;7.10;;;5.13;;
24813;SDS011;12904;50.088;11.414;2023-06-22T09:35:59;5.45;;;4.95;;
24813;SDS011;12904;50.088;11.414;2023-06-22T09:38:24;7.55;;;5.07;;
24813;SDS011;12904;50.088;11.414;2023-06-22T09:40:50;6.00;;;5.50;;
24813;SDS011;12904;50.088;11.414;2023-06-22T09:43:15;5.63;;;5.07;;
24813;SDS011;12904;50.088;11.414;2023-06-22T09:45:41;6.40;;;5.80;;
24813;SDS011;12904;50.088;11.414;2023-06-22T09:48:07;6.15;;;5.43;;
24813;SDS011;12904;50.088;11.414;2023-06-22T09:50:34;5.40;;;5.00;;
24813;SDS011;12904;50.088;11.414;2023-06-22T09:53:01;5.60;;;5.07;;
24813;SDS011;12904;50.088;11.414;2023-06-22T09:55:26;5.65;;;5.07;;
24813;SDS011;12904;50.088;11.414;2023-06-22T09:57:52;6.07;;;5.38;;
24813;SDS011;12904;50.088;11.414;2023-06-22T10:00:18;5.20;;;4.80;;
24813;SDS011;12904;50.088;11.414;2023-06-22T10:02:44;5.47;;;4.97;;
24813;SDS011;12904;50.088;11.414;2023-06-22T10:05:10;6.95;;;4.82;;
24813;SDS011;12904;50.088;11.414;2023-06-22T10:07:35;5.95;;;4.57;;
24813;SDS011;12904;50.088;11.414;2023-06-22T10:10:05;5.65;;;5.10;;
24813;SDS011;12904;50.088;11.414;2023-06-22T10:12:31;5.00;;;4.60;;
24813;SDS011;12904;50.088;11.414;2023-06-22T10:14:57;4.78;;;4.38;;
24813;SDS011;12904;50.088;11.414;2023-06-22T10:17:22;4.97;;;4.50;;
24813;SDS011;12904;50.088;11.414;2023-06-22T10:19:48;4.93;;;4.53;;
24813;SDS011;12904;50.088;11.414;2023-06-22T10:22:14;5.30;;;4.22;;
24813;SDS011;12904;50.088;11.414;2023-06-22T10:24:39;5.00;;;4.60;;
24813;SDS011;12904;50.088;11.414;2023-06-22T10:27:10;5.00;;;4.50;;
24813;SDS011;12904;50.088;11.414;2023-06-22T10:29:37;4.95;;;4.45;;
24813;SDS011;12904;50.088;11.414;2023-06-22T10:32:03;5.05;;;4.65;;
24813;SDS011;12904;50.088;11.414;2023-06-22T10:34:29;4.65;;;4.25;;
24813;SDS011;12904;50.088;11.414;2023-06-22T10:36:54;4.95;;;4.55;;
24813;SDS011;12904;50.088;11.414;2023-06-22T10:39:20;9.52;;;4.65;;
24813;SDS011;12904;50.088;11.414;2023-06-22T10:41:45;5.50;;;4.82;;
24813;SDS011;12904;50.088;11.414;2023-06-22T10:44:11;6.82;;;5.38;;
24813;SDS011;12904;50.088;11.414;2023-06-22T10:46:37;5.25;;;4.68;;
24813;SDS011;12904;50.088;11.414;2023-06-22T10:49:03;5.03;;;4.63;;
24813;SDS011;12904;50.088;11.414;2023-06-22T10:51:28;4.45;;;4.15;;
24813;SDS011;12904;50.088;11.414;2023-06-22T10:53:56;5.30;;;4.80;;
24813;SDS011;12904;50.088;11.414;2023-06-22T10:56:21;5.22;;;4.85;;
24813;SDS011;12904;50.088;11.414;2023-06-22T10:58:47;5.18;;;4.45;;
24813;SDS011;12904;50.088;11.414;2023-06-22T11:01:12;5.50;;;4.63;;
24813;SDS011;12904;50.088;11.414;2023-06-22T11:03:39;7.15;;;4.90;;
24813;SDS011;12904;50.088;11.414;2023-06-22T11:06:04;6.63;;;5.22;;
24813;SDS011;12904;50.088;11.414;2023-06-22T11:08:30;8.50;;;5.15;;
24813;SDS011;12904;50.088;11.414;2023-06-22T11:10:56;5.28;;;4.85;;
24813;SDS011;12904;50.088;11.414;2023-06-22T11:13:21;5.22;;;4.82;;
24813;SDS011;12904;50.088;11.414;2023-06-22T11:15:47;5.15;;;4.63;;
24813;SDS011;12904;50.088;11.414;2023-06-22T11:18:12;5.47;;;4.97;;
24813;SDS011;12904;50.088;11.414;2023-06-22T11:20:38;5.13;;;4.68;;
24813;SDS011;12904;50.088;11.414;2023-06-22T11:23:04;5.03;;;4.63;;
24813;SDS011;12904;50.088;11.414;2023-06-22T11:25:33;4.30;;;3.92;;
24813;SDS011;12904;50.088;11.414;2023-06-22T11:28:03;4.00;;;3.72;;
24813;SDS011;12904;50.088;11.414;2023-06-22T11:30:29;5.28;;;4.63;;
24813;SDS011;12904;50.088;11.414;2023-06-22T11:32:56;4.93;;;3.80;;
24813;SDS011;12904;50.088;11.414;2023-06-22T11:35:23;5.38;;;4.88;;
24813;SDS011;12904;50.088;11.414;2023-06-22T11:37:49;5.38;;;4.88;;
24813;SDS011;12904;50.088;11.414;2023-06-22T11:40:15;5.13;;;4.72;;
24813;SDS011;12904;50.088;11.414;2023-06-22T11:42:42;5.28;;;4.40;;
24813;SDS011;12904;50.088;11.414;2023-06-22T11:45:08;4.78;;;4.40;;
24813;SDS011;12904;50.088;11.414;2023-06-22T11:47:34;4.38;;;3.95;;
24813;SDS011;12904;50.088;11.414;2023-06-22T11:50:00;5.10;;;3.83;;
24813;SDS011;12904;50.088;11.414;2023-06-22T11:52:26;7.63;;;4.32;;
24813;SDS011;12904;50.088;11.414;2023-06-22T11:54:52;7.88;;;3.78;;
24813;SDS011;12904;50.088;11.414;2023-06-22T11:57:18;7.43;;;4.45;;
24813;SDS011;12904;50.088;11.414;2023-06-22T11:59:43;4.47;;;3.63;;
24813;SDS011;12904;50.088;11.414;2023-06-22T12:02:09;7.30;;;4.70;;
24813;SDS011;12904;50.088;11.414;2023-06-22T12:04:34;4.70;;;4.35;;
24813;SDS011;12904;50.088;11.414;2023-06-22T12:07:00;5.35;;;4.30;;
24813;SDS011;12904;50.088;11.414;2023-06-22T12:09:27;4.93;;;4.07;;
24813;SDS011;12904;50.088;11.414;2023-06-22T12:11:52;4.47;;;3.83;;
24813;SDS011;12904;50.088;11.414;2023-06-22T12:14:18;4.85;;;4.40;;
24813;SDS011;12904;50.088;11.414;2023-06-22T12:16:44;7.15;;;4.25;;
24813;SDS011;12904;50.088;11.414;2023-06-22T12:19:09;5.45;;;4.65;;
24813;SDS011;12904;50.088;11.414;2023-06-22T12:21:36;5.72;;;4.22;;
24813;SDS011;12904;50.088;11.414;2023-06-22T12:24:02;6.15;;;4.15;;
24813;SDS011;12904;50.088;11.414;2023-06-22T12:26:28;4.35;;;3.80;;
24813;SDS011;12904;50.088;11.414;2023-06-22T12:28:54;9.38;;;4.60;;
24813;SDS011;12904;50.088;11.414;2023-06-22T12:31:19;7.07;;;4.30;;
24813;SDS011;12904;50.088;11.414;2023-06-22T12:33:45;4.60;;;4.18;;
24813;SDS011;12904;50.088;11.414;2023-06-22T12:36:10;5.10;;;4.28;;
24813;SDS011;12904;50.088;11.414;2023-06-22T12:38:36;7.10;;;3.80;;
24813;SDS011;12904;50.088;11.414;2023-06-22T12:41:02;4.90;;;4.13;;
24813;SDS011;12904;50.088;11.414;2023-06-22T12:43:27;8.80;;;3.75;;
24813;SDS011;12904;50.088;11.414;2023-06-22T12:45:53;4.75;;;4.22;;
24813;SDS011;12904;50.088;11.414;2023-06-22T12:48:18;5.95;;;4.38;;
24813;SDS011;12904;50.088;11.414;2023-06-22T12:50:45;5.10;;;3.85;;
24813;SDS011;12904;50.088;11.414;2023-06-22T12:53:11;5.45;;;4.35;;
24813;SDS011;12904;50.088;11.414;2023-06-22T12:55:37;5.00;;;3.80;;
24813;SDS011;12904;50.088;11.414;2023-06-22T12:58:03;5.28;;;3.85;;
24813;SDS011;12904;50.088;11.414;2023-06-22T13:00:28;8.05;;;4.00;;
24813;SDS011;12904;50.088;11.414;2023-06-22T13:02:54;7.00;;;4.15;;
24813;SDS011;12904;50.088;11.414;2023-06-22T13:05:20;5.43;;;3.83;;
24813;SDS011;12904;50.088;11.414;2023-06-22T13:07:45;7.10;;;4.38;;
24813;SDS011;12904;50.088;11.414;2023-06-22T13:10:11;13.93;;;4.38;;
24813;SDS011;12904;50.088;11.414;2023-06-22T13:12:36;5.43;;;3.88;;
24813;SDS011;12904;50.088;11.414;2023-06-22T13:15:02;7.05;;;4.10;;
24813;SDS011;12904;50.088;11.414;2023-06-22T13:17:28;8.30;;;4.60;;
24813;SDS011;12904;50.088;11.414;2023-06-22T13:19:54;6.35;;;4.18;;
24813;SDS011;12904;50.088;11.414;2023-06-22T13:22:26;8.30;;;4.43;;
24813;SDS011;12904;50.088;11.414;2023-06-22T13:24:56;6.53;;;4.18;;
24813;SDS011;12904;50.088;11.414;2023-06-22T13:27:23;6.68;;;4.03;;
24813;SDS011;12904;50.088;11.414;2023-06-22T13:29:48;6.45;;;4.05;;
24813;SDS011;12904;50.088;11.414;2023-06-22T13:32:14;5.30;;;3.70;;
24813;SDS011;12904;50.088;11.414;2023-06-22T13:34:40;6.85;;;4.18;;
24813;SDS011;12904;50.088;11.414;2023-06-22T13:37:05;5.00;;;4.15;;
24813;SDS011;12904;50.088;11.414;2023-06-22T13:39:31;6.05;;;3.63;;
24813;SDS011;12904;50.088;11.414;2023-06-22T13:41:57;7.93;;;4.25;;
24813;SDS011;12904;50.088;11.414;2023-06-22T13:44:23;5.80;;;3.78;;
24813;SDS011;12904;50.088;11.414;2023-06-22T13:46:52;6.80;;;4.30;;
24813;SDS011;12904;50.088;11.414;2023-06-22T13:49:18;6.32;;;4.25;;
24813;SDS011;12904;50.088;11.414;2023-06-22T13:51:45;4.97;;;4.13;;
24813;SDS011;12904;50.088;11.414;2023-06-22T13:54:13;5.05;;;4.55;;
24813;SDS011;12904;50.088;11.414;2023-06-22T13:56:38;6.80;;;3.83;;
24813;SDS011;12904;50.088;11.414;2023-06-22T13:59:04;6.75;;;3.95;;
24813;SDS011;12904;50.088;11.414;2023-06-22T14:01:30;5.20;;;4.63;;
24813;SDS011;12904;50.088;11.414;2023-06-22T14:03:55;5.65;;;4.18;;
24813;SDS011;12904;50.088;11.414;2023-06-22T14:06:21;7.72;;;4.63;;
24813;SDS011;12904;50.088;11.414;2023-06-22T14:08:46;6.70;;;4.30;;
24813;SDS011;12904;50.088;11.414;2023-06-22T14:11:12;8.15;;;4.43;;
24813;SDS011;12904;50.088;11.414;2023-06-22T14:13:38;8.60;;;4.28;;
24813;SDS011;12904;50.088;11.414;2023-06-22T14:16:07;6.97;;;4.30;;
24813;SDS011;12904;50.088;11.414;2023-06-22T14:18:32;12.52;;;4.88;;
24813;SDS011;12904;50.088;11.414;2023-06-22T14:20:58;4.30;;;3.88;;
24813;SDS011;12904;50.088;11.414;2023-06-22T14:23:24;9.63;;;4.63;;
24813;SDS011;12904;50.088;11.414;2023-06-22T14:25:50;6.10;;;4.20;;